Time;durP1;ratioP1;P1;durP2;ratioP2;P2;SDS_P1;SDS_P2;PMS_P1;PMS_P2;Temp;Humidity;BMP_temperature;BMP_pressure;BME280_temperature;BME280_humidity;BME280_pressure;Samples;Min_cycle;Max_cycle;Signal;HPM_P1;HPM_P2
2022/05/02 00:01:45;;;;;;;6.27;3.90;;;12.60;99.90;;;;;;4992957;28;20201;-75
2022/05/02 00:04:11;;;;;;;7.97;4.73;;;12.70;99.90;;;;;;4992953;28;20589;-76
2022/05/02 00:06:37;;;;;;;5.43;4.50;;;12.70;99.90;;;;;;4992988;28;20283;-76
2022/05/02 00:09:02;;;;;;;10.57;4.50;;;12.70;99.90;;;;;;4992400;28;20184;-75
2022/05/02 00:11:28;;;;;;;6.03;4.13;;;12.80;99.90;;;;;;4993171;28;20726;-75
2022/05/02 00:13:53;;;;;;;8.37;4.03;;;12.80;99.90;;;;;;4992696;28;20627;-76
2022/05/02 00:16:19;;;;;;;5.13;3.97;;;12.80;99.90;;;;;;4991562;28;20214;-76
2022/05/02 00:18:44;;;;;;;6.50;4.17;;;12.70;99.90;;;;;;4990556;28;20205;-75
2022/05/02 00:21:10;;;;;;;7.23;4.10;;;12.70;99.90;;;;;;4992594;28;20198;-75
2022/05/02 00:23:35;;;;;;;7.50;3.97;;;12.70;99.90;;;;;;4991554;28;20236;-75
2022/05/02 00:26:01;;;;;;;9.30;5.50;;;12.80;99.90;;;;;;4996589;28;20201;-75
2022/05/02 00:28:26;;;;;;;8.70;4.93;;;12.80;99.90;;;;;;4994925;28;20205;-74
2022/05/02 00:30:52;;;;;;;6.80;4.60;;;12.80;99.90;;;;;;4996096;28;20209;-74
2022/05/02 00:33:20;;;;;;;8.40;4.67;;;12.90;99.90;;;;;;4996157;28;20194;-75
2022/05/02 00:35:46;;;;;;;8.57;4.07;;;12.90;99.90;;;;;;4994920;28;20197;-76
2022/05/02 00:38:11;;;;;;;7.07;3.50;;;12.90;99.90;;;;;;4994260;28;20229;-76
2022/05/02 00:40:36;;;;;;;7.43;4.57;;;12.90;99.90;;;;;;5032686;23;20236;-79
2022/05/02 00:43:02;;;;;;;6.70;4.13;;;12.90;99.90;;;;;;5052913;28;20717;-79
2022/05/02 00:45:27;;;;;;;9.43;4.03;;;12.90;99.90;;;;;;5054770;28;20210;-80
2022/05/02 00:47:55;;;;;;;6.95;4.53;;;12.90;99.90;;;;;;5053377;28;20171;-80
2022/05/02 00:50:35;;;;;;;6.45;3.95;;;12.80;99.90;;;;;;5053159;28;20203;-79
2022/05/02 00:53:05;;;;;;;6.77;4.10;;;12.80;99.90;;;;;;5051263;28;20195;-79
2022/05/02 00:55:32;;;;;;;4.40;3.50;;;12.90;99.90;;;;;;5052750;28;20195;-79
2022/05/02 00:57:59;;;;;;;6.30;3.77;;;12.90;99.90;;;;;;5052309;28;20204;-79
2022/05/02 01:00:26;;;;;;;9.65;4.53;;;12.90;99.90;;;;;;5053076;28;20242;-80
2022/05/02 01:02:52;;;;;;;9.67;3.70;;;13.00;99.90;;;;;;5054869;28;20163;-79
2022/05/02 01:05:17;;;;;;;7.20;3.83;;;13.00;99.90;;;;;;5053912;28;20206;-80
2022/05/02 01:07:46;;;;;;;6.28;3.53;;;13.10;99.90;;;;;;5050603;28;20265;-80
2022/05/02 01:10:16;;;;;;;7.70;3.80;;;13.00;99.90;;;;;;5051906;28;20266;-80
2022/05/02 01:12:42;;;;;;;5.75;3.72;;;13.00;99.90;;;;;;5053670;28;20218;-79
2022/05/02 01:15:09;;;;;;;5.32;3.75;;;12.90;99.90;;;;;;5053299;28;20510;-79
2022/05/02 01:17:34;;;;;;;8.30;4.47;;;12.80;99.90;;;;;;5053300;28;20680;-79
2022/05/02 01:20:00;;;;;;;6.93;4.03;;;12.80;99.90;;;;;;5052431;28;20227;-80
2022/05/02 01:22:25;;;;;;;8.07;4.07;;;12.70;99.90;;;;;;5053183;28;20207;-79
2022/05/02 01:24:51;;;;;;;7.80;4.70;;;12.50;99.90;;;;;;5053154;28;20207;-79
2022/05/02 01:27:16;;;;;;;4.47;3.90;;;12.50;99.90;;;;;;5053047;28;20732;-79
2022/05/02 01:29:44;;;;;;;7.47;5.07;;;12.50;99.90;;;;;;5052619;28;20225;-79
2022/05/02 01:32:11;;;;;;;9.47;4.57;;;12.50;99.90;;;;;;5052514;28;20757;-79
2022/05/02 01:34:40;;;;;;;6.97;3.67;;;12.50;99.90;;;;;;5051774;28;20726;-79
2022/05/02 01:37:07;;;;;;;8.30;4.50;;;12.40;99.90;;;;;;5053487;28;20218;-79
2022/05/02 01:39:33;;;;;;;5.97;3.97;;;12.30;99.90;;;;;;5052402;28;20211;-79
2022/05/02 01:42:03;;;;;;;5.53;4.03;;;12.20;99.90;;;;;;5054137;28;20221;-79
2022/05/02 01:44:29;;;;;;;5.43;3.70;;;12.10;99.90;;;;;;5053673;28;20242;-79
2022/05/02 01:46:55;;;;;;;8.33;4.50;;;12.10;99.90;;;;;;5055149;28;20227;-79
2022/05/02 01:49:21;;;;;;;5.73;4.17;;;12.10;99.90;;;;;;5054357;28;20199;-79
2022/05/02 01:51:47;;;;;;;4.60;3.77;;;12.00;99.90;;;;;;5039123;28;20695;-80
2022/05/02 01:54:12;;;;;;;7.50;3.97;;;12.10;99.90;;;;;;5056324;28;20183;-80
2022/05/02 01:56:38;;;;;;;7.53;3.87;;;12.00;99.90;;;;;;5055242;28;20203;-79
2022/05/02 01:59:04;;;;;;;5.10;4.00;;;12.00;99.90;;;;;;5054973;28;20228;-79
2022/05/02 02:01:30;;;;;;;9.07;4.30;;;12.00;99.90;;;;;;5055798;28;20227;-79
2022/05/02 02:03:58;;;;;;;8.27;4.07;;;12.00;99.90;;;;;;5054430;28;20204;-79
2022/05/02 02:06:23;;;;;;;6.83;3.90;;;11.90;99.90;;;;;;5053995;28;20203;-79
2022/05/02 02:08:50;;;;;;;7.57;4.60;;;11.80;99.90;;;;;;5051900;28;20676;-79
2022/05/02 02:11:15;;;;;;;6.57;4.17;;;11.70;99.90;;;;;;5055864;28;20208;-79
2022/05/02 02:13:41;;;;;;;9.50;4.57;;;11.70;99.90;;;;;;5054167;28;20218;-80
2022/05/02 02:16:09;;;;;;;5.90;3.60;;;11.70;99.90;;;;;;5055167;28;20272;-80
2022/05/02 02:18:36;;;;;;;9.23;4.23;;;11.80;99.90;;;;;;5052757;28;20211;-80
2022/05/02 02:21:02;;;;;;;5.50;4.10;;;11.70;99.90;;;;;;5055498;28;20604;-80
2022/05/02 02:23:28;;;;;;;5.27;4.03;;;11.70;99.90;;;;;;5053699;28;20252;-80
2022/05/02 02:25:53;;;;;;;7.53;3.83;;;11.80;99.90;;;;;;5055057;28;20204;-80
2022/05/02 02:28:19;;;;;;;7.93;3.63;;;11.80;99.90;;;;;;5052341;28;20676;-80
2022/05/02 02:30:46;;;;;;;5.30;3.57;;;11.70;99.90;;;;;;5054608;28;20214;-80
2022/05/02 02:33:12;;;;;;;5.00;3.90;;;11.50;99.90;;;;;;5054725;28;20176;-80
2022/05/02 02:35:38;;;;;;;9.13;4.37;;;11.30;99.90;;;;;;5053607;28;20179;-80
2022/05/02 02:38:04;;;;;;;7.93;4.00;;;11.30;99.90;;;;;;5051009;28;20724;-79
2022/05/02 02:40:32;;;;;;;7.27;4.13;;;11.30;99.90;;;;;;5052404;28;20219;-80
2022/05/02 02:42:58;;;;;;;8.40;3.83;;;11.30;99.90;;;;;;5052662;28;20236;-79
2022/05/02 02:45:23;;;;;;;7.27;4.13;;;11.40;99.90;;;;;;5053821;28;20576;-79
2022/05/02 02:47:49;;;;;;;5.87;3.53;;;11.40;99.90;;;;;;5054175;28;20327;-80
2022/05/02 02:50:14;;;;;;;8.63;4.23;;;11.50;99.90;;;;;;5037796;28;20727;-80
2022/05/02 02:52:40;;;;;;;5.10;4.17;;;11.30;99.90;;;;;;5032354;28;20315;-79
2022/05/02 02:55:06;;;;;;;6.00;3.90;;;11.20;99.90;;;;;;5040633;28;20228;-79
2022/05/02 02:57:33;;;;;;;4.53;3.80;;;11.10;99.90;;;;;;5041740;28;20228;-80
2022/05/02 02:59:59;;;;;;;6.57;4.70;;;11.10;99.90;;;;;;5033337;28;20219;-79
2022/05/02 03:02:25;;;;;;;4.07;3.33;;;11.10;99.90;;;;;;5033340;28;20223;-79
2022/05/02 03:07:34;;;;;;;8.10;4.10;;;11.20;99.90;;;;;;5031549;28;20563;-79
2022/05/02 03:10:00;;;;;;;7.13;3.70;;;11.10;99.90;;;;;;5031261;28;20204;-79
2022/05/02 03:12:26;;;;;;;5.33;3.80;;;11.20;99.90;;;;;;5034791;28;20212;-80
2022/05/02 03:14:52;;;;;;;5.43;4.20;;;11.20;99.90;;;;;;5033942;28;20168;-79
2022/05/02 03:17:17;;;;;;;10.27;4.97;;;11.20;99.90;;;;;;5033016;28;20254;-79
2022/05/02 03:19:43;;;;;;;4.47;3.90;;;11.10;99.90;;;;;;5030662;28;20279;-79
2022/05/02 03:22:09;;;;;;;7.53;4.80;;;11.10;99.90;;;;;;5033357;28;20204;-79
2022/05/02 03:24:34;;;;;;;6.00;4.27;;;11.20;99.90;;;;;;5034091;28;20292;-79
2022/05/02 03:27:00;;;;;;;7.50;4.30;;;11.20;99.90;;;;;;5032411;28;20264;-79
2022/05/02 03:29:25;;;;;;;8.87;4.83;;;11.20;99.90;;;;;;5012226;28;20216;-80
2022/05/02 03:31:51;;;;;;;7.80;4.40;;;11.20;99.90;;;;;;5036611;28;20819;-79
2022/05/02 03:34:17;;;;;;;7.40;4.37;;;11.10;99.90;;;;;;5031544;28;20204;-79
2022/05/02 03:36:42;;;;;;;5.57;4.27;;;11.10;99.90;;;;;;5031341;28;20290;-79
2022/05/02 03:39:08;;;;;;;8.33;4.47;;;11.10;99.90;;;;;;5033186;28;20236;-79
2022/05/02 03:41:33;;;;;;;8.77;4.43;;;11.10;99.90;;;;;;5031920;28;20685;-82
2022/05/02 03:43:59;;;;;;;5.63;4.17;;;11.00;99.90;;;;;;5032914;28;20208;-80
2022/05/02 03:46:25;;;;;;;7.57;4.90;;;11.00;99.90;;;;;;5032447;28;20254;-80
2022/05/02 03:48:51;;;;;;;9.47;4.77;;;11.00;99.90;;;;;;5032110;28;20258;-79
2022/05/02 03:51:17;;;;;;;7.13;4.43;;;11.00;99.90;;;;;;5032984;28;20616;-80
2022/05/02 03:53:42;;;;;;;5.70;4.10;;;10.90;99.90;;;;;;5033080;28;20195;-80
2022/05/02 03:56:08;;;;;;;6.90;4.73;;;10.90;99.90;;;;;;5032875;28;20697;-80
2022/05/02 03:58:34;;;;;;;7.20;4.63;;;11.10;99.90;;;;;;5039260;28;20203;-80
2022/05/02 04:01:00;;;;;;;6.27;4.13;;;11.10;99.90;;;;;;5033016;28;20254;-80
2022/05/02 04:03:26;;;;;;;7.83;4.50;;;11.20;99.90;;;;;;5032229;28;20266;-80
2022/05/02 04:05:51;;;;;;;6.17;4.17;;;11.30;99.90;;;;;;5034249;28;20168;-81
2022/05/02 04:08:17;;;;;;;8.07;4.87;;;11.30;99.90;;;;;;5033028;28;20284;-80
2022/05/02 04:10:42;;;;;;;7.97;4.60;;;11.40;99.90;;;;;;5032678;28;20214;-80
2022/05/02 04:13:09;;;;;;;7.37;4.10;;;11.40;99.90;;;;;;5041203;28;20204;-80
2022/05/02 04:15:35;;;;;;;11.70;5.37;;;11.50;99.90;;;;;;5036435;28;20246;-80
2022/05/02 04:18:00;;;;;;;7.77;4.40;;;11.50;99.90;;;;;;5031841;28;20653;-80
2022/05/02 04:20:26;;;;;;;8.63;4.97;;;11.60;99.90;;;;;;5036430;28;20196;-80
2022/05/02 04:22:51;;;;;;;8.83;5.57;;;11.60;99.90;;;;;;5027086;28;20196;-80
2022/05/02 04:25:17;;;;;;;8.57;5.13;;;11.60;99.90;;;;;;5033410;28;20200;-80
2022/05/02 04:27:43;;;;;;;9.63;5.23;;;11.70;99.90;;;;;;5034587;28;20211;-80
2022/05/02 04:30:10;;;;;;;11.03;5.10;;;11.80;99.90;;;;;;5033000;28;20227;-80
2022/05/02 04:32:36;;;;;;;12.53;5.37;;;11.80;99.90;;;;;;5033836;28;20177;-80
2022/05/02 04:35:02;;;;;;;6.00;4.70;;;12.20;99.90;;;;;;5041509;28;20204;-80
2022/05/02 04:37:28;;;;;;;7.43;4.90;;;13.40;99.90;;;;;;5036454;28;20366;-80
2022/05/02 04:39:54;;;;;;;7.53;4.67;;;14.60;99.90;;;;;;5032259;28;20248;-79
2022/05/02 04:42:19;;;;;;;8.23;4.25;;;15.70;99.90;;;;;;5033412;28;20192;-80
2022/05/02 04:44:45;;;;;;;7.78;3.92;;;16.70;99.90;;;;;;5034307;28;20180;-80
2022/05/02 04:47:10;;;;;;;7.32;4.40;;;17.40;99.90;;;;;;5031670;28;20196;-80
2022/05/02 04:49:37;;;;;;;8.18;4.43;;;17.90;99.90;;;;;;5035781;28;20216;-80
2022/05/02 04:52:02;;;;;;;7.13;4.88;;;18.30;99.90;;;;;;5033372;28;20200;-80
2022/05/02 04:54:28;;;;;;;12.27;5.03;;;18.70;99.90;;;;;;5033263;28;20266;-79
2022/05/02 04:56:53;;;;;;;7.68;4.80;;;18.80;99.90;;;;;;5032579;28;20734;-80
2022/05/02 04:59:19;;;;;;;8.50;5.03;;;19.20;99.90;;;;;;5032719;28;20408;-81
2022/05/02 05:01:44;;;;;;;6.97;4.53;;;19.90;99.90;;;;;;5032471;28;20212;-80
2022/05/02 05:04:10;;;;;;;6.75;4.60;;;20.40;99.90;;;;;;5043049;28;20196;-80
2022/05/02 05:06:36;;;;;;;11.98;5.43;;;20.50;99.90;;;;;;5039182;28;20536;-80
2022/05/02 05:09:03;;;;;;;5.88;4.80;;;20.80;99.90;;;;;;5048270;28;20483;-81
2022/05/02 05:11:54;;;;;;;9.73;5.30;;;21.10;99.90;;;;;;5055071;28;20267;-80
2022/05/02 05:17:32;;;;;;;9.18;5.20;;;21.90;99.90;;;;;;5046161;28;20218;-81
2022/05/02 05:20:03;;;;;;;6.13;5.28;;;21.90;99.90;;;;;;5033577;28;20252;-81
2022/05/02 05:22:41;;;;;;;7.75;4.90;;;22.00;99.90;;;;;;5052863;28;20706;-81
2022/05/02 05:25:36;;;;;;;6.90;5.07;;;22.50;99.90;;;;;;5052904;28;20206;-81
2022/05/02 05:28:08;;;;;;;9.35;5.90;;;22.30;99.50;;;;;;5040427;28;20200;-81
2022/05/02 05:30:42;;;;;;;10.43;5.47;;;22.70;98.90;;;;;;5053945;28;20215;-81
2022/05/02 05:33:24;;;;;;;7.47;5.20;;;23.00;98.10;;;;;;5055124;28;20655;-81
2022/05/02 05:35:52;;;;;;;8.85;6.15;;;23.10;97.50;;;;;;5053261;28;20697;-81
2022/05/02 05:38:35;;;;;;;14.02;5.93;;;22.40;97.70;;;;;;5045641;28;20203;-79
2022/05/02 05:41:24;;;;;;;8.00;5.22;;;21.90;98.60;;;;;;5052999;28;20238;-79
2022/05/02 05:43:52;;;;;;;9.02;5.80;;;21.40;98.30;;;;;;5035956;28;20610;-80
2022/05/02 05:46:41;;;;;;;8.98;5.85;;;20.30;99.00;;;;;;5053032;28;20208;-80
2022/05/02 05:49:27;;;;;;;7.05;5.00;;;19.50;99.90;;;;;;5032849;28;20230;-80
2022/05/02 05:52:09;;;;;;;7.20;5.22;;;19.30;99.90;;;;;;5047424;28;20604;-79
2022/05/02 05:55:03;;;;;;;8.55;5.65;;;19.10;99.90;;;;;;5041544;28;20252;-79
2022/05/02 05:57:54;;;;;;;8.55;5.72;;;18.90;99.90;;;;;;5052983;28;20243;-79
2022/05/02 06:00:21;;;;;;;8.45;5.38;;;19.00;99.90;;;;;;5051602;28;20223;-80
2022/05/02 06:03:13;;;;;;;7.78;4.82;;;19.90;99.90;;;;;;5053660;28;20239;-79
2022/05/02 06:05:46;;;;;;;7.03;5.05;;;21.70;98.40;;;;;;5032916;28;20681;-81
2022/05/02 06:08:17;;;;;;;7.63;5.10;;;22.50;95.90;;;;;;5042158;28;20291;-80
2022/05/02 06:10:44;;;;;;;9.40;5.03;;;23.20;94.10;;;;;;5039157;28;20286;-80
2022/05/02 06:13:09;;;;;;;7.40;4.97;;;23.50;92.50;;;;;;5054964;28;20581;-80
2022/05/02 06:18:27;;;;;;;7.15;5.05;;;24.10;91.30;;;;;;5053164;28;20258;-80
2022/05/02 06:20:57;;;;;;;8.35;4.60;;;24.60;88.10;;;;;;5053504;28;20219;-80
2022/05/02 06:23:25;;;;;;;11.52;4.88;;;25.00;83.70;;;;;;5055685;28;20204;-80
2022/05/02 06:25:53;;;;;;;5.57;4.03;;;25.10;82.90;;;;;;5055091;28;20208;-80
2022/05/02 06:28:22;;;;;;;5.03;3.55;;;25.10;80.00;;;;;;5055860;28;20207;-79
2022/05/02 06:30:51;;;;;;;6.68;4.18;;;25.50;75.40;;;;;;5056771;28;20754;-80
2022/05/02 06:33:20;;;;;;;7.97;4.47;;;25.60;74.80;;;;;;5054536;28;20179;-80
2022/05/02 06:36:07;;;;;;;7.30;5.05;;;25.70;74.50;;;;;;5053957;28;20176;-79
2022/05/02 06:39:03;;;;;;;8.35;4.32;;;25.40;74.30;;;;;;5027148;28;20208;-80
2022/05/02 06:41:53;;;;;;;8.82;4.95;;;25.90;72.70;;;;;;5035580;28;20310;-79
2022/05/02 06:44:56;;;;;;;7.95;4.78;;;26.20;73.10;;;;;;5054696;28;20214;-79
2022/05/02 06:47:45;;;;;;;10.70;6.43;;;26.80;72.80;;;;;;5047695;28;20214;-77
2022/05/02 06:50:11;;;;;;;8.20;5.90;;;27.50;73.50;;;;;;5054360;28;20211;-78
2022/05/02 06:52:59;;;;;;;6.38;4.57;;;27.80;71.80;;;;;;5053951;28;20747;-79
2022/05/02 06:55:54;;;;;;;8.77;5.32;;;28.50;68.10;;;;;;5053948;28;20264;-78
2022/05/02 06:58:42;;;;;;;9.55;5.93;;;27.20;67.60;;;;;;5021450;28;20691;-79
2022/05/02 07:01:08;;;;;;;11.98;7.22;;;27.60;69.30;;;;;;5037283;28;20246;-79
2022/05/02 07:04:04;;;;;;;9.90;6.30;;;28.00;67.70;;;;;;5038361;28;20214;-79
2022/05/02 07:06:47;;;;;;;11.48;6.57;;;28.30;68.00;;;;;;5053761;28;20589;-78
2022/05/02 07:09:30;;;;;;;9.27;7.20;;;28.20;67.60;;;;;;5050190;28;20600;-78
2022/05/02 07:12:06;;;;;;;9.23;5.07;;;28.30;67.10;;;;;;5056962;28;20202;-78
2022/05/02 07:14:54;;;;;;;6.72;5.53;;;29.00;63.30;;;;;;5055999;28;20690;-78
2022/05/02 07:17:42;;;;;;;8.57;5.00;;;28.60;63.40;;;;;;5058848;28;20214;-77
2022/05/02 07:20:12;;;;;;;8.52;4.65;;;28.50;64.60;;;;;;5048081;28;20285;-78
2022/05/02 07:22:43;;;;;;;7.45;4.60;;;28.60;64.10;;;;;;5055668;28;20269;-78
2022/05/02 07:25:11;;;;;;;7.03;5.40;;;29.10;63.00;;;;;;5055701;28;20629;-79
2022/05/02 07:27:57;;;;;;;8.27;5.10;;;29.80;62.80;;;;;;5056434;28;20215;-79
2022/05/02 07:30:24;;;;;;;7.22;4.70;;;29.90;61.50;;;;;;5056022;28;20215;-77
2022/05/02 07:32:53;;;;;;;9.38;5.15;;;30.40;60.90;;;;;;5057712;28;20171;-78
2022/05/02 07:35:21;;;;;;;10.60;5.57;;;29.60;61.00;;;;;;5055650;28;20640;-78
2022/05/02 07:37:47;;;;;;;9.73;4.80;;;29.70;60.90;;;;;;5048027;28;20215;-78
2022/05/02 07:40:16;;;;;;;8.35;3.95;;;29.10;61.70;;;;;;5054786;28;20233;-78
2022/05/02 07:42:44;;;;;;;7.80;4.25;;;29.40;61.50;;;;;;5054888;28;20203;-78
2022/05/02 07:45:10;;;;;;;5.72;3.75;;;29.20;61.10;;;;;;5054829;28;20244;-78
2022/05/02 07:47:37;;;;;;;5.90;5.30;;;29.20;61.80;;;;;;5055736;28;20182;-79
2022/05/02 07:50:05;;;;;;;6.35;4.55;;;29.70;61.80;;;;;;5054796;28;20203;-78
2022/05/02 07:52:34;;;;;;;4.40;3.40;;;29.80;61.60;;;;;;5055022;28;20274;-78
2022/05/02 07:55:02;;;;;;;6.78;4.53;;;30.30;60.60;;;;;;5056464;28;20218;-79
2022/05/02 07:57:32;;;;;;;7.68;3.83;;;29.80;60.50;;;;;;5056266;28;20221;-78
2022/05/02 08:00:00;;;;;;;10.60;7.18;;;29.40;61.40;;;;;;5056554;28;20172;-78
2022/05/02 08:02:26;;;;;;;5.60;3.67;;;28.90;62.20;;;;;;5057503;28;20198;-78
2022/05/02 08:04:54;;;;;;;5.40;3.63;;;28.70;62.50;;;;;;5056566;28;20289;-78
2022/05/02 08:07:34;;;;;;;7.00;3.47;;;28.30;61.80;;;;;;5048278;28;20212;-78
2022/05/02 08:10:10;;;;;;;3.97;3.30;;;28.40;62.90;;;;;;5049760;28;20687;-77
2022/05/02 08:12:56;;;;;;;4.15;3.40;;;28.40;62.90;;;;;;5057219;28;20578;-79
2022/05/02 08:15:30;;;;;;;5.50;3.80;;;28.70;62.30;;;;;;5057941;28;20269;-78
2022/05/02 08:18:33;;;;;;;8.15;3.95;;;28.80;62.20;;;;;;5058805;28;20323;-79
2022/05/02 08:21:20;;;;;;;8.30;4.18;;;28.00;62.70;;;;;;5059417;28;20210;-79
2022/05/02 08:27:17;;;;;;;6.35;3.50;;;27.60;64.80;;;;;;5036866;28;20228;-79
2022/05/02 08:30:04;;;;;;;6.18;3.05;;;27.60;65.40;;;;;;5055598;28;20289;-78
2022/05/02 08:32:48;;;;;;;5.53;4.18;;;27.50;65.30;;;;;;5054846;28;20630;-79
2022/05/02 08:35:18;;;;;;;4.18;3.28;;;27.30;64.90;;;;;;5056294;28;20631;-78
2022/05/02 08:37:49;;;;;;;3.72;2.92;;;27.90;65.90;;;;;;5045522;28;20517;-78
2022/05/02 08:40:24;;;;;;;5.70;3.38;;;27.90;64.80;;;;;;5055146;28;20207;-80
2022/05/02 08:43:26;;;;;;;5.15;3.75;;;27.40;66.20;;;;;;5061958;28;20306;-80
2022/05/02 08:45:51;;;;;;;6.70;3.88;;;25.90;67.00;;;;;;5059439;28;20586;-80
2022/05/02 08:49:32;;;;;;;4.20;2.88;;;26.90;68.10;;;;;;5057410;28;20172;-80
2022/05/02 08:52:12;;;;;;;4.93;3.03;;;26.60;66.00;;;;;;5060508;28;20215;-79
2022/05/02 08:55:15;;;;;;;4.20;3.17;;;26.90;66.80;;;;;;5057699;28;20228;-80
2022/05/02 08:58:19;;;;;;;6.07;3.58;;;26.70;66.70;;;;;;5051281;28;20219;-79
2022/05/02 09:01:09;;;;;;;5.97;3.20;;;26.90;67.60;;;;;;5058339;28;20270;-80
2022/05/02 09:04:12;;;;;;;7.53;3.83;;;27.50;66.20;;;;;;5056537;28;20219;-78
2022/05/02 09:06:41;;;;;;;6.85;3.65;;;27.10;66.20;;;;;;5048301;28;20227;-78
2022/05/02 09:09:21;;;;;;;6.05;3.38;;;27.10;67.50;;;;;;5045886;28;20195;-80
2022/05/02 09:12:08;;;;;;;6.40;4.90;;;27.10;67.20;;;;;;5024085;28;20290;-80
2022/05/02 09:15:06;;;;;;;5.38;3.92;;;26.80;67.10;;;;;;5042314;28;20211;-80
2022/05/02 09:17:54;;;;;;;5.72;3.38;;;26.80;67.70;;;;;;5038502;28;20299;-82
2022/05/02 09:20:52;;;;;;;5.53;3.83;;;26.60;68.10;;;;;;5038265;28;20223;-80
2022/05/02 09:23:29;;;;;;;5.60;3.60;;;26.60;67.80;;;;;;5058293;28;20211;-81
2022/05/02 09:25:57;;;;;;;7.68;3.78;;;26.20;68.00;;;;;;5038471;28;20203;-76
2022/05/02 09:28:38;;;;;;;5.65;3.95;;;26.20;69.20;;;;;;5050705;28;20207;-77
2022/05/02 09:31:17;;;;;;;6.32;3.80;;;25.30;68.80;;;;;;5038508;28;20214;-77
2022/05/02 09:33:49;;;;;;;6.60;3.75;;;25.10;70.10;;;;;;5050785;28;20282;-75
2022/05/02 09:36:29;;;;;;;7.22;3.95;;;25.10;70.60;;;;;;5051533;28;20341;-76
2022/05/02 09:39:15;;;;;;;5.00;3.70;;;24.30;71.10;;;;;;5039560;28;20195;-75
2022/05/02 09:41:59;;;;;;;4.85;2.97;;;24.50;72.50;;;;;;5043595;28;20219;-79
2022/05/02 09:49:33;;;;;;;7.32;3.97;;;24.00;74.10;;;;;;5050411;28;20257;-75
2022/05/02 09:51:51;;;;;;;8.27;4.10;;;24.60;73.20;;;;;;5050278;28;20290;-75
2022/05/02 09:57:33;;;;;;;8.13;4.03;;;25.10;72.10;;;;;;5044897;28;20233;-76
2022/05/02 10:02:50;;;;;;;9.73;4.45;;;25.10;72.60;;;;;;5057511;28;20205;-74
2022/05/02 10:05:29;;;;;;;13.27;5.70;;;24.50;72.90;;;;;;5051157;28;20207;-77
2022/05/02 10:08:08;;;;;;;9.80;4.38;;;24.20;74.10;;;;;;5043067;28;20200;-77
2022/05/02 10:10:56;;;;;;;8.02;3.40;;;23.40;75.20;;;;;;5063415;28;20226;-77
2022/05/02 10:14:02;;;;;;;8.38;3.95;;;23.40;76.60;;;;;;5054606;28;20227;-78
2022/05/02 10:16:46;;;;;;;4.72;3.72;;;23.30;75.10;;;;;;5064403;28;20230;-79
2022/05/02 10:19:39;;;;;;;7.05;3.80;;;23.60;75.00;;;;;;5055601;28;20704;-80
2022/05/02 10:22:28;;;;;;;8.02;4.20;;;23.90;74.70;;;;;;5060707;28;20239;-81
2022/05/02 10:25:22;;;;;;;9.27;4.38;;;23.60;74.30;;;;;;5023195;28;20722;-78
2022/05/02 10:28:02;;;;;;;5.22;4.15;;;23.60;75.10;;;;;;5055843;28;20657;-80
2022/05/02 10:30:46;;;;;;;8.25;4.95;;;23.40;75.20;;;;;;5053283;28;20238;-78
2022/05/02 10:33:14;;;;;;;8.98;4.65;;;23.50;75.20;;;;;;5055237;28;20207;-75
2022/05/02 10:35:45;;;;;;;5.82;3.50;;;23.20;75.90;;;;;;5054076;28;20188;-76
2022/05/02 10:38:33;;;;;;;4.53;3.38;;;23.50;76.10;;;;;;5044517;28;20231;-77
2022/05/02 10:41:08;;;;;;;4.55;3.65;;;23.70;76.10;;;;;;5047788;28;20216;-77
2022/05/02 10:43:36;;;;;;;5.07;3.70;;;23.90;76.80;;;;;;5051411;28;20237;-74
2022/05/02 10:46:02;;;;;;;7.38;4.07;;;24.00;75.90;;;;;;5047800;28;20284;-75
2022/05/02 10:48:45;;;;;;;5.25;4.13;;;23.90;75.50;;;;;;5050285;28;20702;-75
2022/05/02 10:51:20;;;;;;;4.03;3.38;;;23.40;76.80;;;;;;5052197;28;20199;-76
2022/05/02 10:54:00;;;;;;;7.05;4.10;;;23.60;77.30;;;;;;5052953;28;20213;-76
2022/05/02 10:56:43;;;;;;;5.20;3.72;;;23.40;76.20;;;;;;5044104;28;20216;-78
2022/05/02 10:59:12;;;;;;;6.75;3.88;;;23.50;77.80;;;;;;5053498;28;20207;-77
2022/05/02 11:02:15;;;;;;;9.15;4.05;;;23.80;77.20;;;;;;5056893;28;20219;-75
2022/05/02 11:05:05;;;;;;;6.75;4.05;;;24.00;76.50;;;;;;5052966;28;20207;-74
2022/05/02 11:07:57;;;;;;;6.55;5.20;;;23.90;76.20;;;;;;5040192;28;20219;-74
2022/05/02 11:10:34;;;;;;;6.05;4.25;;;23.80;74.90;;;;;;5052038;28;20278;-79
2022/05/02 11:13:28;;;;;;;11.55;8.00;;;23.60;76.60;;;;;;5054251;28;20285;-78
2022/05/02 11:15:56;;;;;;;8.88;4.60;;;23.50;76.10;;;;;;5053735;28;20295;-76
2022/05/02 11:21:41;;;;;;;12.43;7.55;;;23.60;77.90;;;;;;5035686;28;20211;-77
2022/05/02 11:24:25;;;;;;;5.07;4.57;;;23.60;77.80;;;;;;5042530;28;20525;-78
2022/05/02 11:27:18;;;;;;;7.70;5.38;;;23.80;77.50;;;;;;5048065;28;20211;-80
2022/05/02 11:30:06;;;;;;;9.10;5.25;;;23.70;76.40;;;;;;5047787;28;20199;-79
2022/05/02 11:32:50;;;;;;;5.97;4.50;;;23.40;77.30;;;;;;5051592;28;20232;-83
2022/05/02 11:35:49;;;;;;;5.85;4.40;;;23.60;77.60;;;;;;5056701;28;20230;-80
2022/05/02 11:38:29;;;;;;;5.82;4.38;;;23.60;76.30;;;;;;5043629;28;20215;-78
2022/05/02 11:41:06;;;;;;;5.25;4.53;;;23.60;77.40;;;;;;5052143;28;20237;-78
2022/05/02 11:43:36;;;;;;;6.35;4.57;;;23.70;77.20;;;;;;5053131;28;20214;-79
2022/05/02 11:46:26;;;;;;;9.20;4.47;;;23.90;77.40;;;;;;5053517;28;20227;-80
2022/05/02 11:49:06;;;;;;;6.80;4.50;;;22.70;79.00;;;;;;5039269;28;20204;-78
2022/05/02 11:51:45;;;;;;;6.07;3.95;;;23.00;79.10;;;;;;5054768;28;20222;-81
2022/05/02 11:54:28;;;;;;;4.65;4.20;;;22.80;79.40;;;;;;5055513;28;20217;-83
2022/05/02 11:56:59;;;;;;;6.47;4.30;;;22.90;79.60;;;;;;5045318;28;20200;-79
2022/05/02 11:59:43;;;;;;;10.07;4.88;;;22.40;78.80;;;;;;5024794;28;20591;-76
2022/05/02 12:02:23;;;;;;;6.50;4.75;;;21.80;80.30;;;;;;5051893;28;20294;-76
2022/05/02 12:04:52;;;;;;;4.65;4.20;;;21.70;80.80;;;;;;5051543;28;20582;-78
2022/05/02 12:07:28;;;;;;;5.93;4.88;;;21.70;82.00;;;;;;5040970;28;20695;-77
2022/05/02 12:10:08;;;;;;;7.90;3.70;;;21.90;82.60;;;;;;5038685;28;20223;-78
2022/05/02 12:12:35;;;;;;;5.47;3.90;;;22.50;81.80;;;;;;5054372;28;20210;-79
2022/05/02 12:15:12;;;;;;;5.05;3.47;;;22.80;81.30;;;;;;5053404;28;20599;-79
2022/05/02 12:17:54;;;;;;;6.25;4.65;;;23.00;80.50;;;;;;5052096;28;20195;-78
2022/05/02 12:20:35;;;;;;;8.07;4.55;;;23.50;79.70;;;;;;5055501;28;20222;-83
2022/05/02 12:23:10;;;;;;;6.78;4.47;;;22.50;80.50;;;;;;5052585;28;20207;-80
2022/05/02 12:25:54;;;;;;;5.43;4.45;;;22.30;81.20;;;;;;5050194;28;20602;-78
2022/05/02 12:28:37;;;;;;;8.25;4.20;;;22.60;80.70;;;;;;5047170;28;20218;-77
2022/05/02 12:31:07;;;;;;;6.28;4.20;;;22.80;81.30;;;;;;5054105;28;20849;-80
2022/05/02 12:33:37;;;;;;;3.90;3.60;;;22.80;80.30;;;;;;5051925;28;20219;-77
2022/05/02 12:36:04;;;;;;;6.75;3.83;;;22.90;81.20;;;;;;5051152;28;20180;-77
2022/05/02 12:38:30;;;;;;;6.63;4.07;;;23.20;81.30;;;;;;5041332;28;20172;-75
2022/05/02 12:41:01;;;;;;;7.15;4.90;;;22.90;80.60;;;;;;5051238;28;20215;-76
2022/05/02 12:43:42;;;;;;;7.43;4.63;;;22.80;80.60;;;;;;5060782;22;20220;-77
2022/05/02 12:46:10;;;;;;;5.20;3.78;;;22.40;82.30;;;;;;5033352;28;20203;-78
2022/05/02 12:48:41;;;;;;;4.85;3.53;;;22.30;82.90;;;;;;5033333;28;20212;-74
2022/05/02 12:51:15;;;;;;;6.55;4.22;;;22.30;83.30;;;;;;5030693;28;20892;-77
2022/05/02 12:56:25;;;;;;;4.10;3.75;;;21.60;83.90;;;;;;5031273;28;20223;-78
2022/05/02 13:01:45;;;;;;;6.43;4.57;;;21.60;85.30;;;;;;5028767;28;20219;-75
2022/05/02 13:04:16;;;;;;;6.07;4.03;;;21.30;85.60;;;;;;5027163;28;20219;-76
2022/05/02 13:06:44;;;;;;;5.95;4.32;;;21.00;86.60;;;;;;5030916;28;20206;-76
2022/05/02 13:09:16;;;;;;;8.95;3.45;;;20.80;87.60;;;;;;5030230;28;20256;-77
2022/05/02 13:11:43;;;;;;;4.95;3.53;;;20.90;88.20;;;;;;5032029;28;20275;-76
2022/05/02 13:14:20;;;;;;;6.57;3.70;;;21.00;88.60;;;;;;5030710;28;20234;-75
2022/05/02 13:16:47;;;;;;;5.53;3.55;;;21.20;88.20;;;;;;5031130;28;20212;-76
2022/05/02 13:19:12;;;;;;;7.20;3.95;;;21.30;88.30;;;;;;5030358;28;20586;-77
2022/05/02 13:21:39;;;;;;;5.80;3.42;;;21.40;87.50;;;;;;5030946;28;20295;-77
2022/05/02 13:24:10;;;;;;;5.32;3.70;;;21.40;87.30;;;;;;5030797;28;20219;-77
2022/05/02 13:26:53;;;;;;;7.32;3.63;;;21.30;88.00;;;;;;5032498;28;20183;-77
2022/05/02 13:29:39;;;;;;;9.93;4.03;;;21.30;88.50;;;;;;5029712;28;20260;-79
2022/05/02 13:32:05;;;;;;;7.65;3.58;;;21.50;88.00;;;;;;5028521;28;20707;-75
2022/05/02 13:34:43;;;;;;;7.78;3.88;;;21.40;88.10;;;;;;5030625;28;20208;-73
2022/05/02 13:37:10;;;;;;;3.75;3.45;;;21.50;87.80;;;;;;5028565;28;20215;-73
2022/05/02 13:40:04;;;;;;;6.78;3.75;;;21.30;88.00;;;;;;5031915;28;20258;-76
2022/05/02 13:42:44;;;;;;;4.93;3.90;;;21.00;88.30;;;;;;5028063;28;20227;-76
2022/05/02 13:45:42;;;;;;;8.23;4.10;;;21.20;89.00;;;;;;5030676;28;20172;-74
2022/05/02 13:48:32;;;;;;;5.80;4.53;;;21.30;88.80;;;;;;5023731;28;20168;-74
2022/05/02 13:51:07;;;;;;;6.00;4.22;;;21.40;87.60;;;;;;5030860;28;20566;-77